sensor_id;sensor_type;location;lat;lon;timestamp;pressure;altitude;pressure_sealevel;temperature;humidity
12360;BME280;6244;51.460;7.090;2024-01-27T00:00:37;102347.47;;;3.24;93.88
12360;BME280;6244;51.460;7.090;2024-01-27T00:05:35;102356.06;;;3.18;93.58
12360;BME280;6244;51.460;7.090;2024-01-27T00:10:33;102356.84;;;3.10;94.14
12360;BME280;6244;51.460;7.090;2024-01-27T00:15:30;102352.50;;;3.06;93.72
12360;BME280;6244;51.460;7.090;2024-01-27T00:20:27;102358.56;;;3.08;94.28
12360;BME280;6244;51.460;7.090;2024-01-27T00:25:23;102362.09;;;3.20;93.70
12360;BME280;6244;51.460;7.090;2024-01-27T00:30:21;102361.13;;;3.03;94.22
12360;BME280;6244;51.460;7.090;2024-01-27T00:35:18;102385.28;;;2.98;94.25
12360;BME280;6244;51.460;7.090;2024-01-27T00:40:14;102387.94;;;3.04;94.87
12360;BME280;6244;51.460;7.090;2024-01-27T00:45:12;102400.03;;;3.05;93.84
12360;BME280;6244;51.460;7.090;2024-01-27T00:50:10;102400.94;;;3.08;94.59
12360;BME280;6244;51.460;7.090;2024-01-27T00:55:07;102408.59;;;2.96;93.84
12360;BME280;6244;51.460;7.090;2024-01-27T01:00:05;102404.34;;;3.01;94.20
12360;BME280;6244;51.460;7.090;2024-01-27T01:05:02;102406.06;;;3.01;93.44
12360;BME280;6244;51.460;7.090;2024-01-27T01:10:01;102412.91;;;2.91;93.91
12360;BME280;6244;51.460;7.090;2024-01-27T01:14:58;102404.38;;;3.06;94.08
12360;BME280;6244;51.460;7.090;2024-01-27T01:19:54;102400.81;;;2.94;93.19
12360;BME280;6244;51.460;7.090;2024-01-27T01:24:53;102409.44;;;2.92;93.14
12360;BME280;6244;51.460;7.090;2024-01-27T01:29:53;102412.97;;;2.99;93.96
12360;BME280;6244;51.460;7.090;2024-01-27T01:34:50;102399.19;;;3.06;92.65
12360;BME280;6244;51.460;7.090;2024-01-27T01:39:46;102411.25;;;3.01;93.29
12360;BME280;6244;51.460;7.090;2024-01-27T01:44:43;102408.56;;;2.90;93.70
12360;BME280;6244;51.460;7.090;2024-01-27T01:49:41;102407.72;;;2.94;93.49
12360;BME280;6244;51.460;7.090;2024-01-27T01:54:37;102419.94;;;3.04;94.15
12360;BME280;6244;51.460;7.090;2024-01-27T01:59:34;102401.78;;;3.04;92.49
12360;BME280;6244;51.460;7.090;2024-01-27T02:04:40;102406.13;;;3.08;92.11
12360;BME280;6244;51.460;7.090;2024-01-27T02:09:37;102414.75;;;3.07;93.27
12360;BME280;6244;51.460;7.090;2024-01-27T02:14:34;102412.94;;;2.95;92.49
12360;BME280;6244;51.460;7.090;2024-01-27T02:19:30;102417.19;;;2.86;93.59
12360;BME280;6244;51.460;7.090;2024-01-27T02:24:28;102415.50;;;2.91;93.34
12360;BME280;6244;51.460;7.090;2024-01-27T02:29:25;102424.22;;;3.02;93.49
12360;BME280;6244;51.460;7.090;2024-01-27T02:34:23;102409.34;;;2.81;93.90
12360;BME280;6244;51.460;7.090;2024-01-27T02:39:19;102412.75;;;2.74;94.52
12360;BME280;6244;51.460;7.090;2024-01-27T02:44:18;102404.88;;;2.62;94.89
12360;BME280;6244;51.460;7.090;2024-01-27T02:49:14;102412.56;;;2.57;95.62
12360;BME280;6244;51.460;7.090;2024-01-27T02:54:11;102420.44;;;2.67;95.67
12360;BME280;6244;51.460;7.090;2024-01-27T02:59:07;102413.50;;;2.61;95.69
12360;BME280;6244;51.460;7.090;2024-01-27T03:04:05;102418.63;;;2.56;95.53
12360;BME280;6244;51.460;7.090;2024-01-27T03:09:02;102413.28;;;2.41;96.01
12360;BME280;6244;51.460;7.090;2024-01-27T03:13:58;102419.22;;;2.31;96.96
12360;BME280;6244;51.460;7.090;2024-01-27T03:18:55;102409.72;;;2.33;96.62
12360;BME280;6244;51.460;7.090;2024-01-27T03:23:53;102422.69;;;2.33;98.42
12360;BME280;6244;51.460;7.090;2024-01-27T03:28:49;102416.56;;;2.23;98.29
12360;BME280;6244;51.460;7.090;2024-01-27T03:33:46;102410.44;;;2.21;98.87
12360;BME280;6244;51.460;7.090;2024-01-27T03:38:43;102419.88;;;2.15;99.09
12360;BME280;6244;51.460;7.090;2024-01-27T03:43:40;102419.00;;;2.13;99.35
12360;BME280;6244;51.460;7.090;2024-01-27T03:48:37;102419.88;;;2.13;99.55
12360;BME280;6244;51.460;7.090;2024-01-27T03:53:33;102428.44;;;2.11;99.81
12360;BME280;6244;51.460;7.090;2024-01-27T03:58:30;102431.84;;;2.05;99.72
12360;BME280;6244;51.460;7.090;2024-01-27T04:03:28;102443.97;;;2.09;100.00
12360;BME280;6244;51.460;7.090;2024-01-27T04:08:24;102436.13;;;2.00;100.00
12360;BME280;6244;51.460;7.090;2024-01-27T04:13:21;102452.50;;;2.00;100.00
12360;BME280;6244;51.460;7.090;2024-01-27T04:18:17;102448.25;;;2.04;100.00
12360;BME280;6244;51.460;7.090;2024-01-27T04:23:15;102452.44;;;1.97;100.00
12360;BME280;6244;51.460;7.090;2024-01-27T04:28:12;102446.41;;;1.97;100.00
12360;BME280;6244;51.460;7.090;2024-01-27T04:33:08;102453.28;;;1.95;100.00
12360;BME280;6244;51.460;7.090;2024-01-27T04:38:05;102438.66;;;1.98;100.00
12360;BME280;6244;51.460;7.090;2024-01-27T04:43:03;102439.50;;;1.96;100.00
12360;BME280;6244;51.460;7.090;2024-01-27T04:48:00;102450.72;;;1.96;100.00
12360;BME280;6244;51.460;7.090;2024-01-27T04:52:56;102440.31;;;1.93;100.00
12360;BME280;6244;51.460;7.090;2024-01-27T04:57:53;102448.94;;;1.91;100.00
12360;BME280;6244;51.460;7.090;2024-01-27T05:02:51;102450.66;;;1.90;100.00
12360;BME280;6244;51.460;7.090;2024-01-27T05:07:47;102449.81;;;1.93;100.00
12360;BME280;6244;51.460;7.090;2024-01-27T05:12:44;102443.72;;;1.88;100.00
12360;BME280;6244;51.460;7.090;2024-01-27T05:17:40;102455.75;;;1.86;100.00
12360;BME280;6244;51.460;7.090;2024-01-27T05:22:38;102439.28;;;1.81;100.00
12360;BME280;6244;51.460;7.090;2024-01-27T05:27:36;102447.03;;;1.77;100.00
12360;BME280;6244;51.460;7.090;2024-01-27T05:32:33;102433.25;;;1.80;100.00
12360;BME280;6244;51.460;7.090;2024-01-27T05:37:29;102444.44;;;1.77;100.00
12360;BME280;6244;51.460;7.090;2024-01-27T05:42:27;102450.47;;;1.76;100.00
12360;BME280;6244;51.460;7.090;2024-01-27T05:47:24;102443.56;;;1.77;100.00
12360;BME280;6244;51.460;7.090;2024-01-27T05:52:21;102446.00;;;1.66;100.00
12360;BME280;6244;51.460;7.090;2024-01-27T05:57:17;102443.47;;;1.72;100.00
12360;BME280;6244;51.460;7.090;2024-01-27T06:02:16;102452.97;;;1.73;100.00
12360;BME280;6244;51.460;7.090;2024-01-27T06:07:13;102451.19;;;1.68;100.00
12360;BME280;6244;51.460;7.090;2024-01-27T06:12:09;102461.53;;;1.66;100.00
12360;BME280;6244;51.460;7.090;2024-01-27T06:17:06;102464.13;;;1.68;100.00
12360;BME280;6244;51.460;7.090;2024-01-27T06:22:04;102457.28;;;1.71;100.00
12360;BME280;6244;51.460;7.090;2024-01-27T06:27:00;102463.28;;;1.70;100.00
12360;BME280;6244;51.460;7.090;2024-01-27T06:31:57;102470.16;;;1.67;100.00
12360;BME280;6244;51.460;7.090;2024-01-27T06:36:53;102461.50;;;1.63;100.00
12360;BME280;6244;51.460;7.090;2024-01-27T06:41:51;102463.13;;;1.58;100.00
12360;BME280;6244;51.460;7.090;2024-01-27T06:46:48;102467.47;;;1.61;100.00
12360;BME280;6244;51.460;7.090;2024-01-27T06:51:45;102469.16;;;1.59;100.00
12360;BME280;6244;51.460;7.090;2024-01-27T06:56:42;102486.38;;;1.55;100.00
12360;BME280;6244;51.460;7.090;2024-01-27T07:01:45;102487.38;;;1.65;100.00
12360;BME280;6244;51.460;7.090;2024-01-27T07:06:43;102508.84;;;1.59;100.00
12360;BME280;6244;51.460;7.090;2024-01-27T07:11:39;102499.44;;;1.63;100.00
12360;BME280;6244;51.460;7.090;2024-01-27T07:16:36;102502.78;;;1.57;100.00
12360;BME280;6244;51.460;7.090;2024-01-27T07:21:34;102512.34;;;1.61;100.00
12360;BME280;6244;51.460;7.090;2024-01-27T07:26:31;102514.97;;;1.63;100.00
12360;BME280;6244;51.460;7.090;2024-01-27T07:31:27;102527.81;;;1.58;99.97
12360;BME280;6244;51.460;7.090;2024-01-27T07:36:24;102517.59;;;1.67;99.54
12360;BME280;6244;51.460;7.090;2024-01-27T07:41:22;102521.00;;;1.63;99.45
12360;BME280;6244;51.460;7.090;2024-01-27T07:46:19;102534.81;;;1.65;99.48
12360;BME280;6244;51.460;7.090;2024-01-27T07:51:16;102534.88;;;1.70;99.69
12360;BME280;6244;51.460;7.090;2024-01-27T07:56:13;102535.72;;;1.67;99.40
12360;BME280;6244;51.460;7.090;2024-01-27T08:01:14;102519.41;;;1.73;99.53
12360;BME280;6244;51.460;7.090;2024-01-27T08:06:17;102528.00;;;1.72;99.04
12360;BME280;6244;51.460;7.090;2024-01-27T08:11:13;102536.75;;;1.77;98.79
12360;BME280;6244;51.460;7.090;2024-01-27T08:16:11;102549.81;;;1.86;98.85
12360;BME280;6244;51.460;7.090;2024-01-27T08:21:09;102543.03;;;1.94;97.95
12360;BME280;6244;51.460;7.090;2024-01-27T08:26:06;102538.00;;;2.03;97.69
12360;BME280;6244;51.460;7.090;2024-01-27T08:31:03;102544.22;;;2.16;96.95
12360;BME280;6244;51.460;7.090;2024-01-27T08:36:01;102546.09;;;2.28;96.35
12360;BME280;6244;51.460;7.090;2024-01-27T08:40:58;102539.31;;;2.36;95.45
12360;BME280;6244;51.460;7.090;2024-01-27T08:45:56;102551.44;;;2.42;95.19
12360;BME280;6244;51.460;7.090;2024-01-27T08:50:53;102545.56;;;2.53;94.37
12360;BME280;6244;51.460;7.090;2024-01-27T08:55:50;102556.03;;;2.61;93.44
12360;BME280;6244;51.460;7.090;2024-01-27T09:00:47;102560.41;;;2.67;92.49
12360;BME280;6244;51.460;7.090;2024-01-27T09:05:44;102552.72;;;2.74;91.95
12360;BME280;6244;51.460;7.090;2024-01-27T09:10:40;102547.72;;;2.91;91.12
12360;BME280;6244;51.460;7.090;2024-01-27T09:15:41;102549.59;;;3.04;90.40
12360;BME280;6244;51.460;7.090;2024-01-27T09:20:37;102546.22;;;3.13;89.79
12360;BME280;6244;51.460;7.090;2024-01-27T09:25:34;102547.19;;;3.22;89.45
12360;BME280;6244;51.460;7.090;2024-01-27T09:30:31;102550.81;;;3.40;88.75
12360;BME280;6244;51.460;7.090;2024-01-27T09:35:29;102542.84;;;4.46;83.51
12360;BME280;6244;51.460;7.090;2024-01-27T09:40:25;102543.97;;;5.63;76.59
12360;BME280;6244;51.460;7.090;2024-01-27T09:45:23;102539.59;;;6.09;72.47
12360;BME280;6244;51.460;7.090;2024-01-27T09:50:21;102530.66;;;6.72;70.68
12360;BME280;6244;51.460;7.090;2024-01-27T09:55:19;102536.72;;;7.91;64.76
12360;BME280;6244;51.460;7.090;2024-01-27T10:00:16;102547.03;;;8.08;61.89
12360;BME280;6244;51.460;7.090;2024-01-27T10:05:13;102543.97;;;8.49;61.67
12360;BME280;6244;51.460;7.090;2024-01-27T10:10:11;102547.22;;;7.88;61.99
12360;BME280;6244;51.460;7.090;2024-01-27T10:15:19;102567.97;;;8.03;62.32
12360;BME280;6244;51.460;7.090;2024-01-27T10:20:16;102567.97;;;8.06;61.97
12360;BME280;6244;51.460;7.090;2024-01-27T10:25:14;102558.03;;;8.40;59.83
12360;BME280;6244;51.460;7.090;2024-01-27T10:30:15;102558.16;;;8.27;60.12
12360;BME280;6244;51.460;7.090;2024-01-27T10:35:14;102570.84;;;7.77;62.86
12360;BME280;6244;51.460;7.090;2024-01-27T10:40:11;102561.34;;;8.54;59.62
12360;BME280;6244;51.460;7.090;2024-01-27T10:45:09;102560.63;;;8.40;60.54
12360;BME280;6244;51.460;7.090;2024-01-27T10:50:09;102552.78;;;8.42;59.89
12360;BME280;6244;51.460;7.090;2024-01-27T10:55:07;102543.84;;;8.60;59.67
12360;BME280;6244;51.460;7.090;2024-01-27T11:00:06;102555.31;;;9.14;57.81
12360;BME280;6244;51.460;7.090;2024-01-27T11:05:05;102554.41;;;10.20;53.30
12360;BME280;6244;51.460;7.090;2024-01-27T11:10:03;102544.31;;;9.98;53.22
12360;BME280;6244;51.460;7.090;2024-01-27T11:15:01;102546.72;;;10.54;52.32
12360;BME280;6244;51.460;7.090;2024-01-27T11:19:58;102559.19;;;10.44;52.04
12360;BME280;6244;51.460;7.090;2024-01-27T11:25:06;102563.47;;;10.90;50.77
12360;BME280;6244;51.460;7.090;2024-01-27T11:30:12;102567.84;;;11.28;49.17
12360;BME280;6244;51.460;7.090;2024-01-27T11:35:21;102550.13;;;12.39;45.86
12360;BME280;6244;51.460;7.090;2024-01-27T11:40:17;102561.22;;;11.49;48.00
12360;BME280;6244;51.460;7.090;2024-01-27T11:45:15;102551.28;;;10.87;49.80
12360;BME280;6244;51.460;7.090;2024-01-27T11:50:12;102550.88;;;11.43;48.53
12360;BME280;6244;51.460;7.090;2024-01-27T11:55:08;102537.91;;;12.36;45.59
12360;BME280;6244;51.460;7.090;2024-01-27T12:00:06;102542.88;;;11.83;47.61
12360;BME280;6244;51.460;7.090;2024-01-27T12:05:07;102528.84;;;12.15;45.22
12360;BME280;6244;51.460;7.090;2024-01-27T12:10:05;102533.78;;;11.95;46.24
12360;BME280;6244;51.460;7.090;2024-01-27T12:15:03;102539.53;;;11.75;46.92
12360;BME280;6244;51.460;7.090;2024-01-27T12:20:00;102544.28;;;11.61;45.93
12360;BME280;6244;51.460;7.090;2024-01-27T12:25:08;102536.72;;;11.84;46.45
12360;BME280;6244;51.460;7.090;2024-01-27T12:30:07;102541.09;;;11.84;45.94
12360;BME280;6244;51.460;7.090;2024-01-27T12:35:04;102534.63;;;12.59;43.80
12360;BME280;6244;51.460;7.090;2024-01-27T12:40:03;102538.03;;;12.00;45.76
12360;BME280;6244;51.460;7.090;2024-01-27T12:45:00;102539.41;;;12.14;44.71
12360;BME280;6244;51.460;7.090;2024-01-27T12:49:57;102535.75;;;11.87;45.04
12360;BME280;6244;51.460;7.090;2024-01-27T12:54:54;102540.28;;;11.46;45.61
12360;BME280;6244;51.460;7.090;2024-01-27T12:59:52;102536.84;;;10.25;49.78
12360;BME280;6244;51.460;7.090;2024-01-27T13:04:48;102535.44;;;10.04;50.52
12360;BME280;6244;51.460;7.090;2024-01-27T13:09:45;102530.81;;;9.70;51.78
12360;BME280;6244;51.460;7.090;2024-01-27T13:14:42;102533.25;;;9.80;53.89
12360;BME280;6244;51.460;7.090;2024-01-27T13:19:40;102530.78;;;9.74;52.55
12360;BME280;6244;51.460;7.090;2024-01-27T13:24:37;102519.56;;;9.11;52.80
12360;BME280;6244;51.460;7.090;2024-01-27T13:29:33;102517.25;;;8.90;54.37
12360;BME280;6244;51.460;7.090;2024-01-27T13:34:30;102516.66;;;8.71;54.15
12360;BME280;6244;51.460;7.090;2024-01-27T13:39:29;102514.97;;;8.66;55.38
12360;BME280;6244;51.460;7.090;2024-01-27T13:44:25;102507.88;;;8.75;54.95
12360;BME280;6244;51.460;7.090;2024-01-27T13:49:22;102509.53;;;8.79;54.69
12360;BME280;6244;51.460;7.090;2024-01-27T13:54:18;102515.94;;;8.60;55.58
12360;BME280;6244;51.460;7.090;2024-01-27T13:59:17;102520.34;;;8.53;56.05
12360;BME280;6244;51.460;7.090;2024-01-27T14:04:14;102505.75;;;8.37;56.24
12360;BME280;6244;51.460;7.090;2024-01-27T14:09:12;102497.94;;;8.33;56.49
12360;BME280;6244;51.460;7.090;2024-01-27T14:14:10;102496.19;;;8.30;56.91
12360;BME280;6244;51.460;7.090;2024-01-27T14:19:08;102487.72;;;8.11;56.34
12360;BME280;6244;51.460;7.090;2024-01-27T14:24:05;102490.34;;;8.11;56.65
12360;BME280;6244;51.460;7.090;2024-01-27T14:29:02;102496.38;;;8.16;58.78
12360;BME280;6244;51.460;7.090;2024-01-27T14:33:58;102494.03;;;7.92;58.33
12360;BME280;6244;51.460;7.090;2024-01-27T14:38:56;102497.50;;;7.92;58.94
12360;BME280;6244;51.460;7.090;2024-01-27T14:43:53;102482.03;;;7.73;60.21
12360;BME280;6244;51.460;7.090;2024-01-27T14:48:49;102483.00;;;7.62;60.85
12360;BME280;6244;51.460;7.090;2024-01-27T14:53:46;102489.16;;;7.58;61.15
12360;BME280;6244;51.460;7.090;2024-01-27T14:58:44;102491.69;;;7.64;61.03
12360;BME280;6244;51.460;7.090;2024-01-27T15:03:41;102490.03;;;7.59;61.52
12360;BME280;6244;51.460;7.090;2024-01-27T15:08:38;102486.78;;;7.32;62.02
12360;BME280;6244;51.460;7.090;2024-01-27T15:13:34;102485.94;;;7.27;63.21
12360;BME280;6244;51.460;7.090;2024-01-27T15:18:32;102473.78;;;7.25;63.38
12360;BME280;6244;51.460;7.090;2024-01-27T15:23:29;102476.47;;;7.13;63.46
12360;BME280;6244;51.460;7.090;2024-01-27T15:28:26;102480.88;;;7.07;64.91
12360;BME280;6244;51.460;7.090;2024-01-27T15:33:22;102480.88;;;7.04;65.33
12360;BME280;6244;51.460;7.090;2024-01-27T15:38:20;102486.19;;;6.95;65.53
12360;BME280;6244;51.460;7.090;2024-01-27T15:43:17;102497.59;;;6.76;66.56
12360;BME280;6244;51.460;7.090;2024-01-27T15:48:13;102490.69;;;6.64;66.71
12360;BME280;6244;51.460;7.090;2024-01-27T15:53:10;102484.66;;;6.61;67.17
12360;BME280;6244;51.460;7.090;2024-01-27T15:58:08;102481.25;;;6.45;67.75
12360;BME280;6244;51.460;7.090;2024-01-27T16:03:05;102477.81;;;6.32;68.12
12360;BME280;6244;51.460;7.090;2024-01-27T16:08:02;102478.69;;;6.28;69.07
12360;BME280;6244;51.460;7.090;2024-01-27T16:12:58;102481.34;;;6.16;68.85
12360;BME280;6244;51.460;7.090;2024-01-27T16:17:56;102477.94;;;5.99;69.58
12360;BME280;6244;51.460;7.090;2024-01-27T16:22:53;102475.34;;;5.86;70.33
12360;BME280;6244;51.460;7.090;2024-01-27T16:27:49;102478.81;;;5.79;70.81
12360;BME280;6244;51.460;7.090;2024-01-27T16:32:46;102466.66;;;5.87;71.23
12360;BME280;6244;51.460;7.090;2024-01-27T16:37:44;102461.44;;;5.87;71.50
12360;BME280;6244;51.460;7.090;2024-01-27T16:42:40;102458.88;;;5.83;72.67
12360;BME280;6244;51.460;7.090;2024-01-27T16:47:37;102471.03;;;5.64;71.61
12360;BME280;6244;51.460;7.090;2024-01-27T16:52:33;102470.19;;;5.42;72.63
12360;BME280;6244;51.460;7.090;2024-01-27T16:57:31;102479.75;;;5.25;72.75
12360;BME280;6244;51.460;7.090;2024-01-27T17:02:27;102483.22;;;5.13;73.65
12360;BME280;6244;51.460;7.090;2024-01-27T17:07:24;102488.41;;;5.13;73.61
12360;BME280;6244;51.460;7.090;2024-01-27T17:12:20;102497.06;;;4.88;74.45
12360;BME280;6244;51.460;7.090;2024-01-27T17:17:18;102478.84;;;4.92;75.39
12360;BME280;6244;51.460;7.090;2024-01-27T17:22:15;102484.91;;;4.84;75.36
12360;BME280;6244;51.460;7.090;2024-01-27T17:27:11;102477.13;;;5.00;75.92
12360;BME280;6244;51.460;7.090;2024-01-27T17:32:08;102472.78;;;4.93;74.59
12360;BME280;6244;51.460;7.090;2024-01-27T17:37:06;102479.72;;;5.00;74.94
12360;BME280;6244;51.460;7.090;2024-01-27T17:42:03;102465.84;;;4.91;74.92
12360;BME280;6244;51.460;7.090;2024-01-27T17:46:59;102464.97;;;4.72;75.19
12360;BME280;6244;51.460;7.090;2024-01-27T17:51:56;102464.03;;;4.58;76.26
12360;BME280;6244;51.460;7.090;2024-01-27T17:56:54;102471.03;;;4.72;75.91
12360;BME280;6244;51.460;7.090;2024-01-27T18:01:51;102469.25;;;4.70;76.64
12360;BME280;6244;51.460;7.090;2024-01-27T18:06:47;102479.59;;;4.36;76.06
12360;BME280;6244;51.460;7.090;2024-01-27T18:11:44;102483.81;;;4.18;76.96
12360;BME280;6244;51.460;7.090;2024-01-27T18:16:42;102474.25;;;4.09;77.21
12360;BME280;6244;51.460;7.090;2024-01-27T18:21:40;102465.56;;;4.01;77.98
12360;BME280;6244;51.460;7.090;2024-01-27T18:26:36;102460.31;;;3.95;79.72
12360;BME280;6244;51.460;7.090;2024-01-27T18:31:33;102472.50;;;4.00;78.99
12360;BME280;6244;51.460;7.090;2024-01-27T18:36:31;102471.41;;;3.62;78.83
12360;BME280;6244;51.460;7.090;2024-01-27T18:41:28;102475.66;;;3.52;80.45
12360;BME280;6244;51.460;7.090;2024-01-27T18:46:24;102476.44;;;3.43;81.66
12360;BME280;6244;51.460;7.090;2024-01-27T18:51:21;102476.59;;;3.62;81.65
12360;BME280;6244;51.460;7.090;2024-01-27T18:56:19;102467.88;;;3.55;81.14
12360;BME280;6244;51.460;7.090;2024-01-27T19:01:15;102473.94;;;3.56;82.45
12360;BME280;6244;51.460;7.090;2024-01-27T19:06:12;102465.25;;;3.52;82.14
12360;BME280;6244;51.460;7.090;2024-01-27T19:11:09;102455.03;;;3.78;82.32
12360;BME280;6244;51.460;7.090;2024-01-27T19:16:08;102456.75;;;3.74;81.12
12360;BME280;6244;51.460;7.090;2024-01-27T19:21:04;102461.88;;;3.65;80.86
12360;BME280;6244;51.460;7.090;2024-01-27T19:26:01;102476.75;;;3.86;80.78
12360;BME280;6244;51.460;7.090;2024-01-27T19:30:58;102471.50;;;3.81;79.70
12360;BME280;6244;51.460;7.090;2024-01-27T19:35:55;102474.09;;;3.80;79.95
12360;BME280;6244;51.460;7.090;2024-01-27T19:40:52;102462.91;;;3.87;80.09
12360;BME280;6244;51.460;7.090;2024-01-27T19:45:48;102476.69;;;3.81;79.68
12360;BME280;6244;51.460;7.090;2024-01-27T19:50:45;102477.53;;;3.77;79.29
12360;BME280;6244;51.460;7.090;2024-01-27T19:55:43;102477.53;;;3.76;79.26
12360;BME280;6244;51.460;7.090;2024-01-27T20:00:39;102469.75;;;3.76;79.03
12360;BME280;6244;51.460;7.090;2024-01-27T20:05:36;102477.47;;;3.65;79.38
12360;BME280;6244;51.460;7.090;2024-01-27T20:10:33;102476.50;;;3.49;79.54
12360;BME280;6244;51.460;7.090;2024-01-27T20:15:31;102470.47;;;3.57;79.91
12360;BME280;6244;51.460;7.090;2024-01-27T20:20:27;102467.78;;;3.43;80.28
12360;BME280;6244;51.460;7.090;2024-01-27T20:25:24;102465.25;;;3.47;79.82
12360;BME280;6244;51.460;7.090;2024-01-27T20:30:20;102460.72;;;3.23;80.51
12360;BME280;6244;51.460;7.090;2024-01-27T20:35:18;102469.41;;;3.30;80.45
12360;BME280;6244;51.460;7.090;2024-01-27T20:40:16;102467.75;;;3.37;80.19
12360;BME280;6244;51.460;7.090;2024-01-27T20:45:13;102471.16;;;3.31;80.27
12360;BME280;6244;51.460;7.090;2024-01-27T20:50:10;102464.19;;;3.26;81.26
12360;BME280;6244;51.460;7.090;2024-01-27T20:55:08;102470.25;;;3.26;82.57
12360;BME280;6244;51.460;7.090;2024-01-27T21:00:06;102460.69;;;3.22;82.10
12360;BME280;6244;51.460;7.090;2024-01-27T21:05:05;102459.88;;;3.28;81.00
12360;BME280;6244;51.460;7.090;2024-01-27T21:10:02;102454.69;;;3.26;80.45
12360;BME280;6244;51.460;7.090;2024-01-27T21:15:00;102458.91;;;3.13;79.89
12360;BME280;6244;51.460;7.090;2024-01-27T21:19:56;102455.41;;;3.10;80.46
12360;BME280;6244;51.460;7.090;2024-01-27T21:24:53;102454.50;;;3.06;81.40
12360;BME280;6244;51.460;7.090;2024-01-27T21:29:49;102450.09;;;2.98;80.73
12360;BME280;6244;51.460;7.090;2024-01-27T21:34:47;102445.94;;;3.10;81.29
12360;BME280;6244;51.460;7.090;2024-01-27T21:39:44;102429.19;;;2.78;80.46
12360;BME280;6244;51.460;7.090;2024-01-27T21:44:41;102432.53;;;2.64;82.71
12360;BME280;6244;51.460;7.090;2024-01-27T21:49:38;102424.00;;;2.76;82.70
12360;BME280;6244;51.460;7.090;2024-01-27T21:54:39;102418.72;;;2.69;82.51
12360;BME280;6244;51.460;7.090;2024-01-27T21:59:36;102404.06;;;2.71;83.27
12360;BME280;6244;51.460;7.090;2024-01-27T22:04:33;102402.41;;;2.79;82.73
12360;BME280;6244;51.460;7.090;2024-01-27T22:09:29;102391.38;;;2.98;82.35
12360;BME280;6244;51.460;7.090;2024-01-27T22:14:27;102393.09;;;3.01;80.41
12360;BME280;6244;51.460;7.090;2024-01-27T22:19:24;102387.00;;;2.94;80.69
12360;BME280;6244;51.460;7.090;2024-01-27T22:24:21;102379.94;;;2.78;81.30
12360;BME280;6244;51.460;7.090;2024-01-27T22:29:17;102370.31;;;2.61;80.95
12360;BME280;6244;51.460;7.090;2024-01-27T22:34:16;102371.06;;;2.50;82.88
12360;BME280;6244;51.460;7.090;2024-01-27T22:39:13;102356.28;;;2.41;81.99
12360;BME280;6244;51.460;7.090;2024-01-27T22:44:09;102341.47;;;2.26;82.60
12360;BME280;6244;51.460;7.090;2024-01-27T22:49:06;102344.28;;;2.49;83.26
12360;BME280;6244;51.460;7.090;2024-01-27T22:54:13;102332.31;;;2.67;82.53
12360;BME280;6244;51.460;7.090;2024-01-27T22:59:12;102319.38;;;2.68;81.90
12360;BME280;6244;51.460;7.090;2024-01-27T23:04:09;102321.22;;;2.81;81.46
12360;BME280;6244;51.460;7.090;2024-01-27T23:09:05;102313.50;;;2.90;81.15
12360;BME280;6244;51.460;7.090;2024-01-27T23:14:04;102311.81;;;2.95;80.91
12360;BME280;6244;51.460;7.090;2024-01-27T23:19:01;102311.00;;;3.01;80.42
12360;BME280;6244;51.460;7.090;2024-01-27T23:23:58;102303.13;;;2.89;79.67
12360;BME280;6244;51.460;7.090;2024-01-27T23:28:55;102293.53;;;2.76;80.32
12360;BME280;6244;51.460;7.090;2024-01-27T23:33:53;102297.75;;;2.63;79.64
12360;BME280;6244;51.460;7.090;2024-01-27T23:38:49;102306.22;;;2.44;80.07
12360;BME280;6244;51.460;7.090;2024-01-27T23:43:46;102311.28;;;2.31;81.25
12360;BME280;6244;51.460;7.090;2024-01-27T23:48:42;102306.09;;;2.28;82.35
12360;BME280;6244;51.460;7.090;2024-01-27T23:53:40;102288.03;;;2.38;82.48
12360;BME280;6244;51.460;7.090;2024-01-27T23:58:37;102282.13;;;2.57;81.37
